createdAt,value
2023-01-12T00:01:15.368Z,84.37
2023-01-12T00:05:36.211Z,84.37
2023-01-12T00:10:15.181Z,84.64
2023-01-12T00:15:12.653Z,84.61
2023-01-12T00:19:33.537Z,84.30
2023-01-12T00:24:21.173Z,84.57
2023-01-12T00:36:35.081Z,84.62
2023-01-12T00:40:44.353Z,84.56
2023-01-12T01:07:05.597Z,85.53
2023-01-12T01:15:20.108Z,85.44
2023-01-12T01:19:31.436Z,85.34
2023-01-12T01:23:38.192Z,85.17
2023-01-12T01:28:05.712Z,85.14
2023-01-12T01:32:51.621Z,85.39
2023-01-12T01:37:19.797Z,85.32
2023-01-12T01:41:49.678Z,85.18
2023-01-12T01:54:56.089Z,85.58
2023-01-12T01:59:51.156Z,85.45
2023-01-12T02:04:17.780Z,85.60
2023-01-12T02:08:59.105Z,85.27
2023-01-12T02:13:26.121Z,85.46
2023-01-12T02:22:26.786Z,85.47
2023-01-12T02:31:35.716Z,85.50
2023-01-12T02:40:29.723Z,85.54
2023-01-12T02:44:45.096Z,85.81
2023-01-12T02:53:32.825Z,85.60
2023-01-12T02:58:23.827Z,85.90
2023-01-12T03:11:25.139Z,86.01
2023-01-12T03:15:59.615Z,86.01
2023-01-12T03:20:22.913Z,85.96
2023-01-12T03:24:26.162Z,85.96
2023-01-12T03:28:50.788Z,85.76
2023-01-12T03:33:09.561Z,85.87
2023-01-12T03:50:42.724Z,85.97
2023-01-12T03:55:12.330Z,86.00
2023-01-12T03:59:21.442Z,86.28
2023-01-12T04:03:58.259Z,86.53
2023-01-12T04:08:26.566Z,86.42
2023-01-12T04:12:54.804Z,86.41
2023-01-12T04:17:10.419Z,86.36
2023-01-12T04:21:29.572Z,86.42
2023-01-12T04:25:54.841Z,86.46
2023-01-12T04:34:27.129Z,86.27
2023-01-12T04:38:38.454Z,86.42
2023-01-12T04:43:13.791Z,86.52
2023-01-12T04:47:18.170Z,86.43
2023-01-12T04:51:51.531Z,86.50
2023-01-12T04:56:11.569Z,86.46
2023-01-12T05:00:36.836Z,86.31
2023-01-12T05:04:42.186Z,86.56
2023-01-12T05:09:09.528Z,86.59
2023-01-12T05:17:43.849Z,86.33
2023-01-12T05:22:13.612Z,86.61
2023-01-12T05:26:18.908Z,86.57
2023-01-12T05:35:08.969Z,86.71
2023-01-12T05:39:27.224Z,86.52
2023-01-12T05:43:45.398Z,86.76
2023-01-12T05:48:14.813Z,86.71
2023-01-12T05:52:33.324Z,86.79
2023-01-12T05:56:52.301Z,86.67
2023-01-12T06:01:06.785Z,86.77
2023-01-12T06:05:13.288Z,86.89
2023-01-12T06:14:02.806Z,86.87
2023-01-12T06:18:25.054Z,87.11
2023-01-12T06:22:55.914Z,87.19
2023-01-12T06:27:30.401Z,87.47
2023-01-12T06:32:00.664Z,88.42
2023-01-12T06:36:32.013Z,89.26
2023-01-12T06:41:01.546Z,89.41
2023-01-12T06:45:32.950Z,89.07
2023-01-12T06:49:53.305Z,88.68
2023-01-12T06:54:23.045Z,88.16
2023-01-12T06:58:30.907Z,88.48
2023-01-12T07:02:41.994Z,88.18
2023-01-12T07:06:58.242Z,88.25
2023-01-12T07:11:13.982Z,88.21
2023-01-12T07:15:09.106Z,88.05
2023-01-12T07:19:35.945Z,88.36
2023-01-12T07:23:58.778Z,87.99
2023-01-12T07:28:07.726Z,87.59
2023-01-12T07:32:02.274Z,87.32
2023-01-12T07:36:16.529Z,87.38
2023-01-12T07:40:03.907Z,87.18
2023-01-12T07:43:22.075Z,86.82
2023-01-12T07:47:46.661Z,86.62
2023-01-12T07:51:49.485Z,86.47
2023-01-12T07:55:28.322Z,86.05
2023-01-12T07:59:09.559Z,85.69
2023-01-12T08:03:52.049Z,85.59
2023-01-12T08:10:54.019Z,85.07
2023-01-12T08:18:04.446Z,84.57
2023-01-12T08:22:01.342Z,83.82
2023-01-12T08:26:12.642Z,83.68
2023-01-12T08:30:25.064Z,82.94
2023-01-12T08:34:33.786Z,83.09
2023-01-12T08:37:58.152Z,81.76
2023-01-12T08:41:52.482Z,80.54
2023-01-12T08:45:58.591Z,79.84
2023-01-12T08:50:08.890Z,79.33
2023-01-12T08:54:19.667Z,78.03
2023-01-12T08:58:25.339Z,77.39
2023-01-12T09:02:10.219Z,76.65
2023-01-12T09:05:38.584Z,76.04
2023-01-12T09:09:17.151Z,75.00
2023-01-12T09:13:03.895Z,75.96
2023-01-12T09:16:13.562Z,75.84
2023-01-12T09:23:44.595Z,74.18
2023-01-12T09:27:29.102Z,75.26
2023-01-12T09:31:09.856Z,74.95
2023-01-12T09:35:17.213Z,75.82
2023-01-12T09:39:44.283Z,73.72
2023-01-12T09:44:04.291Z,73.82
2023-01-12T09:48:23.240Z,73.65
2023-01-12T09:52:35.645Z,73.63
2023-01-12T09:56:57.372Z,74.45
2023-01-12T10:09:54.314Z,73.86
2023-01-12T10:14:16.497Z,74.32
2023-01-12T10:18:30.277Z,74.06
2023-01-12T10:22:56.529Z,73.69
2023-01-12T10:30:56.619Z,71.70
2023-01-12T10:35:27.279Z,72.35
2023-01-12T10:39:26.425Z,72.31
2023-01-12T10:43:49.404Z,71.13
2023-01-12T10:48:08.635Z,70.19
2023-01-12T10:51:51.711Z,71.04
2023-01-12T11:03:44.705Z,70.97
2023-01-12T11:21:13.562Z,70.78
2023-01-12T11:25:31.815Z,71.13
2023-01-12T11:30:02.223Z,70.46
2023-01-12T11:38:23.776Z,69.74
2023-01-12T11:42:13.436Z,70.07
2023-01-12T11:45:53.040Z,69.96
2023-01-12T11:49:40.401Z,68.73
2023-01-12T11:52:46.192Z,68.61
2023-01-12T11:56:08.791Z,68.80
2023-01-12T11:59:20.922Z,67.72
2023-01-12T12:02:26.936Z,69.42
2023-01-12T12:06:05.995Z,69.50
2023-01-12T12:10:21.453Z,69.85
2023-01-12T12:14:29.040Z,69.63
2023-01-12T12:22:29.354Z,69.34
2023-01-12T12:26:45.602Z,70.22
2023-01-12T12:31:09.255Z,70.64
2023-01-12T12:35:24.791Z,71.38
2023-01-12T12:43:23.683Z,71.34
2023-01-12T12:46:42.019Z,71.34
2023-01-12T12:50:21.233Z,71.10
2023-01-12T13:03:52.629Z,71.46
2023-01-12T13:12:02.438Z,71.53
2023-01-12T13:16:19.278Z,71.78
2023-01-12T13:20:36.195Z,72.24
2023-01-12T13:24:44.396Z,71.90
2023-01-12T13:29:02.089Z,72.15
2023-01-12T13:33:16.394Z,72.26
2023-01-12T13:37:15.253Z,72.92
2023-01-12T13:41:16.996Z,72.65
2023-01-12T13:45:33.497Z,73.13
2023-01-12T13:49:22.245Z,73.43
2023-01-12T13:54:00.370Z,73.93
2023-01-12T13:57:57.275Z,74.40
2023-01-12T14:09:54.800Z,74.94
2023-01-12T14:14:20.254Z,75.19
2023-01-12T14:22:02.855Z,76.71
2023-01-12T14:25:50.528Z,77.07
2023-01-12T14:30:00.295Z,77.57
2023-01-12T14:34:13.147Z,78.18
2023-01-12T14:45:55.176Z,78.65
2023-01-12T14:49:55.965Z,79.13
2023-01-12T15:02:23.032Z,79.82
2023-01-12T15:06:30.124Z,80.39
2023-01-12T15:10:31.322Z,80.26
2023-01-12T15:22:07.922Z,80.74
2023-01-12T15:25:46.666Z,81.61
2023-01-12T15:33:09.989Z,81.42
2023-01-12T15:37:29.127Z,81.89
2023-01-12T15:41:37.836Z,82.13
2023-01-12T15:46:06.223Z,82.02
2023-01-12T15:50:02.862Z,81.94
2023-01-12T15:53:58.440Z,81.92
2023-01-12T15:58:24.194Z,81.78
2023-01-12T16:02:28.712Z,82.04
2023-01-12T16:17:26.596Z,82.12
2023-01-12T16:29:12.141Z,81.81
2023-01-12T16:32:55.703Z,81.69
2023-01-12T16:37:14.794Z,81.74
2023-01-12T16:40:18.941Z,81.45
2023-01-12T16:43:24.462Z,81.41
2023-01-12T16:46:28.152Z,81.30
2023-01-12T16:49:37.088Z,81.30
2023-01-12T16:52:44.373Z,81.30
2023-01-12T16:56:11.258Z,81.36
2023-01-12T16:59:17.072Z,81.31
2023-01-12T17:02:22.537Z,81.20
2023-01-12T17:05:28.179Z,81.07
2023-01-12T17:08:31.437Z,81.03
2023-01-12T17:11:56.255Z,80.86
2023-01-12T17:15:33.698Z,80.67
2023-01-12T17:18:58.148Z,80.60
2023-01-12T17:22:02.618Z,80.19
2023-01-12T17:25:06.382Z,79.90
2023-01-12T17:28:09.528Z,79.99
2023-01-12T17:31:18.259Z,79.82
2023-01-12T17:34:22.030Z,79.71
2023-01-12T17:37:25.240Z,79.39
2023-01-12T17:40:29.136Z,79.64
2023-01-12T17:43:32.411Z,79.65
2023-01-12T17:46:35.843Z,79.63
2023-01-12T17:50:14.697Z,79.59
2023-01-12T17:54:23.339Z,79.85
2023-01-12T17:58:32.271Z,79.96
2023-01-12T18:02:18.733Z,80.10
2023-01-12T18:05:39.687Z,80.04
2023-01-12T18:09:55.651Z,80.29
2023-01-12T18:13:54.630Z,80.14
2023-01-12T18:17:41.592Z,80.44
2023-01-12T18:21:39.601Z,80.72
2023-01-12T18:25:03.020Z,80.71
2023-01-12T18:28:30.591Z,80.68
2023-01-12T18:32:17.636Z,80.66
2023-01-12T18:36:14.675Z,80.47
2023-01-12T18:40:13.589Z,80.39
2023-01-12T18:44:03.654Z,80.59
2023-01-12T18:48:06.754Z,80.55
2023-01-12T18:52:00.321Z,80.41
2023-01-12T18:55:50.601Z,80.28
2023-01-12T18:59:36.548Z,80.36
2023-01-12T19:03:44.732Z,80.40
2023-01-12T19:07:40.550Z,80.15
2023-01-12T19:11:12.679Z,80.04
2023-01-12T19:14:34.185Z,79.96
2023-01-12T19:18:09.076Z,79.84
2023-01-12T19:21:45.575Z,79.77
2023-01-12T19:25:24.903Z,79.49
2023-01-12T19:28:40.758Z,79.92
2023-01-12T19:32:18.494Z,79.63
2023-01-12T19:35:22.086Z,79.74
2023-01-12T19:39:18.528Z,79.85
2023-01-12T19:43:15.299Z,79.94
2023-01-12T19:46:41.546Z,79.98
2023-01-12T19:50:28.639Z,80.14
2023-01-12T19:54:12.346Z,80.29
2023-01-12T19:57:27.625Z,80.44
2023-01-12T20:02:02.054Z,80.43
2023-01-12T20:06:21.222Z,80.64
2023-01-12T20:10:05.725Z,80.62
2023-01-12T20:13:48.609Z,80.88
2023-01-12T20:18:08.974Z,81.07
2023-01-12T20:21:50.464Z,80.93
2023-01-12T20:26:07.284Z,80.88
2023-01-12T20:30:04.297Z,81.05
2023-01-12T20:34:13.514Z,81.20
2023-01-12T20:38:22.110Z,81.14
2023-01-12T20:42:34.124Z,81.40
2023-01-12T20:46:33.658Z,81.48
2023-01-12T20:50:30.194Z,81.62
2023-01-12T20:54:39.217Z,81.86
2023-01-12T20:58:38.465Z,82.26
2023-01-12T21:02:35.229Z,82.33
2023-01-12T21:06:44.214Z,82.40
2023-01-12T21:10:53.130Z,82.53
2023-01-12T21:15:02.149Z,82.60
2023-01-12T21:19:10.870Z,82.50
2023-01-12T21:23:08.036Z,82.57
2023-01-12T21:26:51.184Z,82.95
2023-01-12T21:30:59.891Z,82.97
2023-01-12T21:35:09.057Z,82.95
2023-01-12T21:39:09.076Z,83.05
2023-01-12T21:43:18.006Z,83.31
2023-01-12T21:46:54.407Z,83.03
2023-01-12T21:50:51.030Z,83.05
2023-01-12T21:55:05.038Z,83.43
2023-01-12T22:01:22.721Z,83.43
2023-01-12T22:05:37.792Z,83.29
2023-01-12T22:09:54.513Z,83.39
2023-01-12T22:18:34.762Z,83.29
2023-01-12T22:22:52.504Z,83.31
2023-01-12T22:31:35.808Z,82.78
2023-01-12T22:40:45.003Z,82.52
2023-01-12T22:44:52.196Z,82.42
2023-01-12T22:49:09.692Z,81.72
2023-01-12T22:53:27.973Z,81.40
2023-01-12T22:57:58.036Z,81.25
2023-01-12T23:02:07.636Z,80.95
2023-01-12T23:06:27.195Z,80.84
2023-01-12T23:10:27.171Z,80.97
2023-01-12T23:14:17.216Z,81.03
2023-01-12T23:18:17.147Z,81.32
2023-01-12T23:23:45.459Z,81.60
2023-01-12T23:28:13.670Z,81.56
2023-01-12T23:33:01.896Z,81.88
2023-01-12T23:37:19.019Z,82.49
2023-01-12T23:45:43.594Z,82.82
2023-01-12T23:54:28.364Z,82.78
